Time;durP1;ratioP1;P1;durP2;ratioP2;P2;SDS_P1;SDS_P2;PMS_P1;PMS_P2;Temp;Humidity;BMP_temperature;BMP_pressure;BME280_temperature;BME280_humidity;BME280_pressure;Samples;Min_cycle;Max_cycle;Signal;HPM_P1;HPM_P2
2022/01/21 00:01:32;;;;;;;;;;;1.70;80.10;;;;;;5023687;28;87143;-42
2022/01/21 00:03:58;;;;;;;;;;;1.70;80.10;;;;;;5023421;28;88764;-42
2022/01/21 00:06:23;;;;;;;;;;;1.80;80.20;;;;;;5022861;28;89627;-42
2022/01/21 00:08:51;;;;;;;;;;;1.70;80.10;;;;;;5026325;28;87178;-43
2022/01/21 00:11:18;;;;;;;;;;;1.70;80.10;;;;;;5023035;28;89309;-43
2022/01/21 00:13:44;;;;;;;;;;;1.80;80.20;;;;;;5024651;28;87218;-43
2022/01/21 00:16:14;;;;;;;;;;;1.80;80.20;;;;;;5027423;28;87857;-43
2022/01/21 00:18:43;;;;;;;;;;;1.80;80.10;;;;;;5026323;28;89486;-43
2022/01/21 00:32:06;;;;;;;;;;;1.80;80.20;;;;;;5029416;28;87151;-43
2022/01/21 00:34:32;;;;;;;;;;;1.80;80.30;;;;;;5026307;28;87085;-43
2022/01/21 00:36:57;;;;;;;;;;;1.80;80.30;;;;;;5026600;28;87777;-43
2022/01/21 00:39:26;;;;;;;;;;;1.80;80.20;;;;;;5026167;28;90209;-42
2022/01/21 00:42:07;;;;;;;;;;;1.80;80.20;;;;;;5026038;28;86448;-43
2022/01/21 00:44:33;;;;;;;;;;;1.80;80.20;;;;;;5026404;28;88452;-43
2022/01/21 00:46:58;;;;;;;;;;;1.80;80.20;;;;;;5025873;28;89293;-42
2022/01/21 00:49:24;;;;;;;;;;;1.80;80.20;;;;;;5025497;28;88049;-43
2022/01/21 00:51:49;;;;;;;;;;;1.80;80.10;;;;;;5028760;28;89479;-42
2022/01/21 00:54:15;;;;;;;;;;;1.80;80.20;;;;;;5026003;28;87136;-43
2022/01/21 00:56:41;;;;;;;;;;;1.80;80.20;;;;;;5026338;28;87377;-43
2022/01/21 00:59:07;;;;;;;;;;;1.80;80.20;;;;;;5025787;28;89582;-43
2022/01/21 01:01:32;;;;;;;;;;;1.80;80.10;;;;;;5026214;28;87106;-42
2022/01/21 01:03:58;;;;;;;;;;;1.90;80.20;;;;;;5026143;28;88837;-43
2022/01/21 01:06:24;;;;;;;;;;;1.90;80.20;;;;;;5025947;28;88865;-43
2022/01/21 01:08:51;;;;;;;;;;;1.90;80.20;;;;;;5026084;28;87222;-43
2022/01/21 01:11:24;;;;;;;;;;;1.90;80.20;;;;;;5026219;28;88818;-43
2022/01/21 01:22:04;;;;;;;;;;;1.90;80.00;;;;;;5023471;28;86833;-43
2022/01/21 01:29:55;;;;;;;;;;;1.90;79.70;;;;;;5025685;28;86918;-43
2022/01/21 01:32:21;;;;;;;;;;;1.90;79.70;;;;;;5026068;28;88491;-43
2022/01/21 01:34:46;;;;;;;;;;;1.90;79.70;;;;;;5025162;28;88574;-42
2022/01/21 01:37:25;;;;;;;;;;;1.90;79.60;;;;;;5028557;28;87063;-43
2022/01/21 01:40:00;;;;;;;;;;;1.90;79.60;;;;;;5024635;28;90768;-43
2022/01/21 01:42:57;;;;;;;;;;;1.90;79.60;;;;;;5025082;28;87122;-43
2022/01/21 01:50:49;;;;;;;;;;;1.90;79.60;;;;;;5025361;28;86832;-42
2022/01/21 01:53:15;;;;;;;;;;;1.90;79.70;;;;;;5025218;28;87866;-43
2022/01/21 01:55:41;;;;;;;;;;;1.90;79.60;;;;;;5025009;28;89124;-42
2022/01/21 01:58:07;;;;;;;;;;;1.90;79.60;;;;;;5025722;28;86471;-42
2022/01/21 02:00:32;;;;;;;;;;;1.90;79.60;;;;;;5027970;28;86857;-43
2022/01/21 02:03:08;;;;;;;;;;;1.90;79.60;;;;;;5025124;28;86876;-43
2022/01/21 02:05:34;;;;;;;;;;;1.90;79.60;;;;;;5024346;28;88807;-43
2022/01/21 02:07:59;;;;;;;;;;;1.90;79.60;;;;;;5024787;28;89609;-42
2022/01/21 02:10:25;;;;;;;;;;;1.90;79.60;;;;;;5025231;28;87122;-43
2022/01/21 02:12:51;;;;;;;;;;;1.90;79.60;;;;;;5025072;28;87803;-43
2022/01/21 02:15:20;;;;;;;;;;;1.90;79.60;;;;;;5024494;28;89391;-42
2022/01/21 02:23:14;;;;;;;;;;;1.90;79.60;;;;;;5026506;28;86214;-43
2022/01/21 02:25:39;;;;;;;;;;;1.90;79.60;;;;;;5024940;28;87225;-43
2022/01/21 02:28:05;;;;;;;;;;;1.90;79.60;;;;;;5024427;28;89379;-43
2022/01/21 02:30:30;;;;;;;;;;;1.90;80.20;;;;;;5023923;28;88118;-42
2022/01/21 02:32:57;;;;;;;;;;;1.90;79.60;;;;;;5024973;28;88255;-43
2022/01/21 02:35:24;;;;;;;;;;;1.90;79.60;;;;;;5024261;28;88824;-43
2022/01/21 02:37:49;;;;;;;;;;;1.90;79.60;;;;;;5024250;28;87115;-43
2022/01/21 02:40:16;;;;;;;;;;;1.90;79.60;;;;;;5024523;28;88694;-43
2022/01/21 02:42:42;;;;;;;;;;;1.90;79.60;;;;;;5023822;28;88167;-43
2022/01/21 02:45:08;;;;;;;;;;;1.90;79.60;;;;;;5027202;28;87199;-43
2022/01/21 02:47:34;;;;;;;;;;;1.90;79.60;;;;;;5024506;28;89050;-43
2022/01/21 02:49:59;;;;;;;;;;;1.90;79.70;;;;;;5024631;28;87242;-42
2022/01/21 02:52:29;;;;;;;;;;;1.90;79.60;;;;;;5024254;28;88092;-42
2022/01/21 02:54:54;;;;;;;;;;;1.90;79.60;;;;;;5023397;28;90378;-42
2022/01/21 02:57:20;;;;;;;;;;;1.90;79.70;;;;;;5024771;28;87173;-43
2022/01/21 02:59:45;;;;;;;;;;;1.90;79.70;;;;;;5024052;28;89222;-42
2022/01/21 03:02:11;;;;;;;;;;;1.90;79.70;;;;;;5023949;28;89407;-43
2022/01/21 03:07:12;;;;;;;;;;;1.90;79.70;;;;;;5022556;28;87886;-43
2022/01/21 03:09:37;;;;;;;;;;;1.90;79.70;;;;;;5024114;28;87124;-43
2022/01/21 03:12:03;;;;;;;;;;;1.90;79.80;;;;;;5024514;28;88703;-43
2022/01/21 03:14:29;;;;;;;;;;;1.90;80.30;;;;;;5023513;28;89545;-43
2022/01/21 03:16:55;;;;;;;;;;;1.90;79.70;;;;;;5023815;28;87154;-43
2022/01/21 03:19:21;;;;;;;;;;;1.90;79.70;;;;;;5023463;28;87887;-42
2022/01/21 03:21:46;;;;;;;;;;;1.90;79.70;;;;;;5023528;28;89837;-43
2022/01/21 03:24:12;;;;;;;;;;;1.90;79.60;;;;;;5024006;28;87038;-43
2022/01/21 03:26:37;;;;;;;;;;;1.90;79.60;;;;;;5026208;28;89616;-43
2022/01/21 03:29:03;;;;;;;;;;;1.90;79.70;;;;;;5023489;28;87239;-43
2022/01/21 03:31:30;;;;;;;;;;;1.90;79.70;;;;;;5023775;28;87824;-43
2022/01/21 03:33:59;;;;;;;;;;;1.90;79.70;;;;;;5023245;28;88544;-43
2022/01/21 03:36:28;;;;;;;;;;;1.90;79.70;;;;;;5024199;28;86416;-43
2022/01/21 03:38:54;;;;;;;;;;;1.90;79.80;;;;;;5023620;28;87439;-42
2022/01/21 03:41:19;;;;;;;;;;;1.90;79.80;;;;;;5022912;28;89467;-43
2022/01/21 03:43:45;;;;;;;;;;;1.90;79.70;;;;;;5022787;28;88099;-42
2022/01/21 03:46:11;;;;;;;;;;;1.90;79.80;;;;;;5023413;28;89850;-43
2022/01/21 03:48:37;;;;;;;;;;;1.90;79.80;;;;;;5025144;28;88503;-43
2022/01/21 03:51:03;;;;;;;;;;;1.90;80.00;;;;;;5023743;28;87958;-43
2022/01/21 03:53:28;;;;;;;;;;;2.00;80.20;;;;;;5022951;28;89712;-43
2022/01/21 03:55:54;;;;;;;;;;;2.00;80.20;;;;;;5023448;28;87044;-43
2022/01/21 03:58:20;;;;;;;;;;;2.00;80.20;;;;;;5023444;28;87038;-43
2022/01/21 04:00:47;;;;;;;;;;;2.00;80.40;;;;;;5023498;28;88891;-43
2022/01/21 04:03:13;;;;;;;;;;;1.90;80.50;;;;;;5023450;28;87118;-43
2022/01/21 04:05:38;;;;;;;;;;;2.00;80.80;;;;;;5023502;28;88826;-43
2022/01/21 04:08:05;;;;;;;;;;;2.00;80.80;;;;;;5022195;28;90322;-43
2022/01/21 04:10:30;;;;;;;;;;;2.00;80.80;;;;;;5026021;28;87144;-43
2022/01/21 04:12:56;;;;;;;;;;;2.00;81.50;;;;;;5022626;28;88992;-43
2022/01/21 04:15:23;;;;;;;;;;;1.90;81.50;;;;;;5023070;28;87052;-43
2022/01/21 04:17:48;;;;;;;;;;;2.00;81.90;;;;;;5023099;28;88943;-43
2022/01/21 04:20:14;;;;;;;;;;;2.00;81.80;;;;;;5023064;28;87954;-43
2022/01/21 04:22:40;;;;;;;;;;;2.00;81.70;;;;;;5023077;28;87134;-43
2022/01/21 04:25:06;;;;;;;;;;;2.00;81.60;;;;;;5023681;28;87418;-43
2022/01/21 04:27:32;;;;;;;;;;;2.00;81.60;;;;;;5022206;28;90171;-43
2022/01/21 04:29:58;;;;;;;;;;;2.00;81.70;;;;;;5023041;28;87119;-43
2022/01/21 04:32:23;;;;;;;;;;;2.00;81.40;;;;;;5024961;28;89006;-43
2022/01/21 04:34:49;;;;;;;;;;;2.00;81.40;;;;;;5023020;28;87119;-43
2022/01/21 04:37:16;;;;;;;;;;;2.00;81.60;;;;;;5022823;28;88865;-43
2022/01/21 04:39:57;;;;;;;;;;;2.00;81.50;;;;;;5022514;28;88656;-43
2022/01/21 04:47:35;;;;;;;;;;;2.00;81.40;;;;;;5022707;28;87336;-43
2022/01/21 04:50:00;;;;;;;;;;;2.00;81.30;;;;;;5023430;28;86377;-43
2022/01/21 04:52:26;;;;;;;;;;;2.00;81.10;;;;;;5022811;28;87677;-43
2022/01/21 04:54:52;;;;;;;;;;;2.00;81.00;;;;;;5025286;28;89080;-43
2022/01/21 04:57:17;;;;;;;;;;;2.00;81.10;;;;;;5022162;28;87939;-43
2022/01/21 04:59:43;;;;;;;;;;;2.00;80.90;;;;;;5023919;28;89348;-43
2022/01/21 05:02:09;;;;;;;;;;;2.00;80.80;;;;;;5025925;28;87038;-43
2022/01/21 05:04:35;;;;;;;;;;;2.00;80.80;;;;;;5026114;28;88900;-43
2022/01/21 05:07:03;;;;;;;;;;;2.00;80.80;;;;;;5025642;28;88974;-43
2022/01/21 05:09:31;;;;;;;;;;;2.00;80.80;;;;;;5025905;28;86882;-43
2022/01/21 05:11:57;;;;;;;;;;;2.00;80.60;;;;;;5026054;28;88941;-43
2022/01/21 05:14:28;;;;;;;;;;;1.90;80.60;;;;;;5028892;28;89223;-43
2022/01/21 05:17:02;;;;;;;;;;;2.00;80.60;;;;;;5026135;28;88125;-43
2022/01/21 05:19:28;;;;;;;;;;;2.00;80.70;;;;;;5025581;28;89401;-43
2022/01/21 05:21:53;;;;;;;;;;;1.90;80.50;;;;;;5024855;28;88059;-43
2022/01/21 05:24:20;;;;;;;;;;;2.00;80.50;;;;;;5025754;28;89932;-43
2022/01/21 05:26:53;;;;;;;;;;;1.90;80.40;;;;;;5025308;28;89322;-43
2022/01/21 05:29:19;;;;;;;;;;;2.00;80.50;;;;;;5025760;28;87071;-43
2022/01/21 05:31:45;;;;;;;;;;;1.90;80.20;;;;;;5025716;28;89003;-43
2022/01/21 05:34:11;;;;;;;;;;;1.90;80.30;;;;;;5025177;28;88540;-43
2022/01/21 05:36:40;;;;;;;;;;;1.90;80.00;;;;;;5028190;28;87063;-43
2022/01/21 05:39:06;;;;;;;;;;;1.90;80.10;;;;;;5025555;28;87822;-43
2022/01/21 05:41:31;;;;;;;;;;;1.90;80.10;;;;;;5025173;28;86930;-43
2022/01/21 05:44:09;;;;;;;;;;;1.90;80.10;;;;;;5025664;28;87060;-43
2022/01/21 05:46:55;;;;;;;;;;;1.90;80.20;;;;;;5024543;28;90575;-43
2022/01/21 05:49:20;;;;;;;;;;;1.90;80.00;;;;;;5025395;28;87155;-43
2022/01/21 05:51:46;;;;;;;;;;;1.90;80.10;;;;;;5025549;28;89089;-43
2022/01/21 05:54:13;;;;;;;;;;;1.90;80.00;;;;;;5025038;28;89468;-43
2022/01/21 05:56:38;;;;;;;;;;;1.90;79.80;;;;;;5024970;28;87481;-43
2022/01/21 05:59:07;;;;;;;;;;;1.90;79.90;;;;;;5028000;28;87589;-43
2022/01/21 06:01:34;;;;;;;;;;;1.90;79.80;;;;;;5025181;28;87129;-43
2022/01/21 06:04:01;;;;;;;;;;;1.90;79.80;;;;;;5025899;28;88920;-43
2022/01/21 06:06:26;;;;;;;;;;;2.00;79.80;;;;;;5024461;28;89489;-43
2022/01/21 06:08:52;;;;;;;;;;;1.90;79.70;;;;;;5025053;28;87185;-43
2022/01/21 06:11:17;;;;;;;;;;;1.90;79.60;;;;;;5023940;28;87764;-42
2022/01/21 06:13:46;;;;;;;;;;;2.00;79.80;;;;;;5024816;28;88504;-43
2022/01/21 06:16:11;;;;;;;;;;;1.90;79.60;;;;;;5024836;28;87110;-43
2022/01/21 06:18:37;;;;;;;;;;;1.90;79.60;;;;;;5025170;28;87445;-43
2022/01/21 06:21:02;;;;;;;;;;;1.90;79.70;;;;;;5027647;28;89634;-43
2022/01/21 06:23:28;;;;;;;;;;;1.90;79.70;;;;;;5024842;28;89168;-43
2022/01/21 06:25:53;;;;;;;;;;;2.00;80.30;;;;;;5024226;28;89344;-43
2022/01/21 06:28:19;;;;;;;;;;;2.00;79.70;;;;;;5025120;28;86240;-43
2022/01/21 06:30:44;;;;;;;;;;;1.90;79.60;;;;;;5024702;28;87120;-43
2022/01/21 06:33:10;;;;;;;;;;;1.90;79.50;;;;;;5024358;28;89230;-43
2022/01/21 06:35:35;;;;;;;;;;;1.90;79.50;;;;;;5024138;28;88103;-43
2022/01/21 06:38:01;;;;;;;;;;;1.90;79.60;;;;;;5024481;28;90182;-43
2022/01/21 06:40:27;;;;;;;;;;;1.90;79.50;;;;;;5024119;28;89379;-43
2022/01/21 06:42:52;;;;;;;;;;;1.90;79.60;;;;;;5027149;28;87214;-43
2022/01/21 06:45:18;;;;;;;;;;;1.90;79.70;;;;;;5024084;28;88500;-43
2022/01/21 06:47:44;;;;;;;;;;;1.90;79.70;;;;;;5024354;28;86830;-43
2022/01/21 06:50:10;;;;;;;;;;;1.90;79.60;;;;;;5024791;28;88874;-43
2022/01/21 06:52:35;;;;;;;;;;;1.90;79.50;;;;;;5024523;28;88988;-43
2022/01/21 06:55:01;;;;;;;;;;;1.90;79.50;;;;;;5024274;28;86838;-43
2022/01/21 06:57:27;;;;;;;;;;;1.90;79.50;;;;;;5024410;28;87400;-43
2022/01/21 06:59:53;;;;;;;;;;;2.00;79.50;;;;;;5023307;28;89731;-43
2022/01/21 07:02:19;;;;;;;;;;;1.90;79.50;;;;;;5023868;28;87118;-43
2022/01/21 07:04:45;;;;;;;;;;;1.90;79.50;;;;;;5026673;28;88674;-43
2022/01/21 07:07:11;;;;;;;;;;;1.90;79.50;;;;;;5024124;28;87177;-43
2022/01/21 07:09:36;;;;;;;;;;;1.90;79.40;;;;;;5024065;28;88339;-43
2022/01/21 07:12:02;;;;;;;;;;;2.00;79.50;;;;;;5023737;28;88099;-43
2022/01/21 07:14:28;;;;;;;;;;;1.90;79.40;;;;;;5023993;28;87038;-43
2022/01/21 07:16:54;;;;;;;;;;;1.90;79.40;;;;;;5024270;28;89125;-43
2022/01/21 07:19:19;;;;;;;;;;;1.90;79.40;;;;;;5023580;28;89412;-43
2022/01/21 07:21:45;;;;;;;;;;;1.90;79.50;;;;;;5024022;28;87128;-43
2022/01/21 07:24:10;;;;;;;;;;;1.90;79.50;;;;;;5024883;28;89273;-42
2022/01/21 07:26:36;;;;;;;;;;;1.90;79.40;;;;;;5023639;28;87130;-43
2022/01/21 07:29:02;;;;;;;;;;;1.90;79.50;;;;;;5023863;28;89222;-43
2022/01/21 07:31:28;;;;;;;;;;;1.90;79.50;;;;;;5023132;28;89241;-42
2022/01/21 07:33:54;;;;;;;;;;;1.90;79.50;;;;;;5023675;28;87127;-43
2022/01/21 07:36:19;;;;;;;;;;;1.90;79.40;;;;;;5023621;28;88870;-43
2022/01/21 07:38:45;;;;;;;;;;;1.90;79.40;;;;;;5023368;28;89244;-43
2022/01/21 07:41:11;;;;;;;;;;;1.90;79.40;;;;;;5023575;28;86405;-43
2022/01/21 07:43:36;;;;;;;;;;;1.90;79.30;;;;;;5023596;28;88151;-43
2022/01/21 07:46:02;;;;;;;;;;;1.90;79.30;;;;;;5026121;28;89556;-42
2022/01/21 07:48:27;;;;;;;;;;;1.90;79.30;;;;;;5022702;28;88964;-43
2022/01/21 07:50:53;;;;;;;;;;;1.90;79.20;;;;;;5023311;28;89476;-42
2022/01/21 07:53:19;;;;;;;;;;;1.90;79.20;;;;;;5023365;28;87176;-42
2022/01/21 07:55:45;;;;;;;;;;;1.90;79.20;;;;;;5023781;28;87305;-42
2022/01/21 07:58:12;;;;;;;;;;;1.90;79.10;;;;;;5023014;28;89269;-42
2022/01/21 08:00:37;;;;;;;;;;;1.90;79.20;;;;;;5023319;28;86976;-42
2022/01/21 08:03:04;;;;;;;;;;;1.90;79.20;;;;;;5023286;28;88776;-42
2022/01/21 08:05:32;;;;;;;;;;;1.90;79.20;;;;;;5023364;28;88596;-42
2022/01/21 08:07:58;;;;;;;;;;;1.90;79.10;;;;;;5026113;28;86984;-43
2022/01/21 08:10:23;;;;;;;;;;;1.90;79.10;;;;;;5022823;28;90214;-42
2022/01/21 08:12:49;;;;;;;;;;;1.90;79.20;;;;;;5022583;28;88067;-43
2022/01/21 08:15:14;;;;;;;;;;;1.90;79.10;;;;;;5023386;28;88371;-42
2022/01/21 08:17:40;;;;;;;;;;;1.90;79.00;;;;;;5022759;28;89410;-42
2022/01/21 08:20:06;;;;;;;;;;;1.90;79.00;;;;;;5023150;28;87158;-42
2022/01/21 08:22:31;;;;;;;;;;;1.90;79.00;;;;;;5022944;28;90427;-43
2022/01/21 08:24:57;;;;;;;;;;;1.90;79.00;;;;;;5022655;28;89583;-42
2022/01/21 08:27:23;;;;;;;;;;;1.90;79.10;;;;;;5023068;28;87103;-42
2022/01/21 08:29:48;;;;;;;;;;;1.90;79.10;;;;;;5026156;28;88952;-42
2022/01/21 08:32:14;;;;;;;;;;;1.90;79.00;;;;;;5022688;28;87114;-42
2022/01/21 08:34:40;;;;;;;;;;;1.90;79.00;;;;;;5024497;28;88839;-42
2022/01/21 08:37:05;;;;;;;;;;;1.80;79.00;;;;;;5025427;28;90138;-42
2022/01/21 08:39:32;;;;;;;;;;;1.90;79.00;;;;;;5026312;28;86984;-42
2022/01/21 08:41:57;;;;;;;;;;;1.90;79.00;;;;;;5025947;28;88678;-42
2022/01/21 08:44:23;;;;;;;;;;;1.90;78.90;;;;;;5026101;28;89614;-42
2022/01/21 08:46:48;;;;;;;;;;;1.90;78.80;;;;;;5025956;28;87221;-42
2022/01/21 08:49:14;;;;;;;;;;;1.90;78.90;;;;;;5026333;28;88904;-42
2022/01/21 08:51:50;;;;;;;;;;;1.90;79.00;;;;;;5028899;28;88682;-42
2022/01/21 08:54:16;;;;;;;;;;;1.80;79.00;;;;;;5026890;28;88672;-42
2022/01/21 08:56:41;;;;;;;;;;;1.80;79.00;;;;;;5025750;28;89512;-42
2022/01/21 08:59:07;;;;;;;;;;;1.80;79.00;;;;;;5026195;28;87158;-43
2022/01/21 09:01:33;;;;;;;;;;;1.80;78.90;;;;;;5025350;28;88034;-42
2022/01/21 09:03:58;;;;;;;;;;;1.90;78.90;;;;;;5025656;28;88776;-42
2022/01/21 09:06:28;;;;;;;;;;;1.90;78.80;;;;;;5025842;28;87113;-42
2022/01/21 09:08:55;;;;;;;;;;;1.80;78.80;;;;;;5026038;28;88825;-42
2022/01/21 09:11:20;;;;;;;;;;;1.90;78.80;;;;;;5025558;28;88557;-42
2022/01/21 09:13:46;;;;;;;;;;;1.80;78.60;;;;;;5028799;28;87159;-42
2022/01/21 09:16:12;;;;;;;;;;;1.90;78.60;;;;;;5025391;28;89513;-42
2022/01/21 09:18:49;;;;;;;;;;;1.90;78.60;;;;;;5026330;28;86386;-42
2022/01/21 09:21:15;;;;;;;;;;;1.90;78.60;;;;;;5025857;28;88356;-42
2022/01/21 09:23:41;;;;;;;;;;;1.90;78.70;;;;;;5025265;28;89598;-42
2022/01/21 09:26:07;;;;;;;;;;;1.80;78.60;;;;;;5024901;28;88055;-42
2022/01/21 09:28:33;;;;;;;;;;;1.80;78.60;;;;;;5025617;28;89786;-42
2022/01/21 09:30:58;;;;;;;;;;;1.90;78.70;;;;;;5025523;28;89546;-42
2022/01/21 09:33:24;;;;;;;;;;;1.90;78.60;;;;;;5028542;28;87029;-42
2022/01/21 09:35:49;;;;;;;;;;;1.90;78.70;;;;;;5025312;28;89292;-42
2022/01/21 09:38:16;;;;;;;;;;;1.90;78.50;;;;;;5025551;28;87179;-42
2022/01/21 09:40:46;;;;;;;;;;;1.90;78.60;;;;;;5024892;28;88915;-43
2022/01/21 09:43:11;;;;;;;;;;;1.90;78.60;;;;;;5025731;28;89054;-42
2022/01/21 09:45:39;;;;;;;;;;;1.90;78.60;;;;;;5024285;28;87176;-42
2022/01/21 09:48:06;;;;;;;;;;;1.90;78.60;;;;;;5025239;28;88684;-42
2022/01/21 09:50:32;;;;;;;;;;;1.90;78.60;;;;;;5024328;28;90640;-42
2022/01/21 09:52:58;;;;;;;;;;;1.90;78.60;;;;;;5025597;28;87137;-43
2022/01/21 09:55:23;;;;;;;;;;;1.90;78.50;;;;;;5027697;28;87761;-42
2022/01/21 09:57:53;;;;;;;;;;;1.90;78.50;;;;;;5024829;28;87142;-42
2022/01/21 10:00:23;;;;;;;;;;;1.90;78.60;;;;;;5025119;28;88811;-42
2022/01/21 10:02:49;;;;;;;;;;;1.90;78.50;;;;;;5024861;28;89821;-42
2022/01/21 10:05:15;;;;;;;;;;;1.90;78.40;;;;;;5024950;27;87090;-42
2022/01/21 10:07:41;;;;;;;;;;;1.90;78.40;;;;;;5025565;28;88357;-42
2022/01/21 10:10:08;;;;;;;;;;;1.90;78.50;;;;;;5024670;28;90017;-42
2022/01/21 10:12:39;;;;;;;;;;;1.90;78.40;;;;;;5024742;28;87153;-43
2022/01/21 10:15:05;;;;;;;;;;;1.90;78.40;;;;;;5024478;28;89007;-42
2022/01/21 10:17:31;;;;;;;;;;;2.00;78.50;;;;;;5027592;28;89425;-42
2022/01/21 10:20:11;;;;;;;;;;;2.00;78.40;;;;;;5025046;28;89002;-42
2022/01/21 10:22:36;;;;;;;;;;;2.00;78.40;;;;;;5024550;28;89715;-42
2022/01/21 10:25:02;;;;;;;;;;;2.00;78.40;;;;;;5024655;28;87101;-42
2022/01/21 10:27:29;;;;;;;;;;;2.00;78.50;;;;;;5024652;28;88769;-43
2022/01/21 10:29:54;;;;;;;;;;;2.00;78.40;;;;;;5024259;28;89540;-42
2022/01/21 10:32:33;;;;;;;;;;;2.00;78.50;;;;;;5025135;28;86288;-42
2022/01/21 10:34:59;;;;;;;;;;;2.00;78.40;;;;;;5024713;28;88714;-42
2022/01/21 10:37:35;;;;;;;;;;;2.00;78.30;;;;;;5024199;28;88323;-42
2022/01/21 10:40:03;;;;;;;;;;;2.00;78.30;;;;;;5027265;28;87906;-42
2022/01/21 10:42:29;;;;;;;;;;;2.00;78.30;;;;;;5023856;28;89615;-42
2022/01/21 10:44:55;;;;;;;;;;;2.00;78.30;;;;;;5024575;28;87187;-42
2022/01/21 10:47:28;;;;;;;;;;;2.00;78.30;;;;;;5024516;28;88634;-43
2022/01/21 10:50:13;;;;;;;;;;;2.00;78.20;;;;;;5024116;28;89488;-42
2022/01/21 10:52:49;;;;;;;;;;;2.00;78.20;;;;;;5024589;28;86952;-42
2022/01/21 10:55:32;;;;;;;;;;;2.00;78.10;;;;;;5024375;28;88745;-42
2022/01/21 10:58:05;;;;;;;;;;;2.10;78.30;;;;;;5024265;28;88858;-42
2022/01/21 11:00:31;;;;;;;;;;;2.00;78.70;;;;;;5024160;28;87184;-42
2022/01/21 11:03:07;;;;;;;;;;;2.00;78.10;;;;;;5026770;28;89091;-42
2022/01/21 11:05:38;;;;;;;;;;;2.00;78.20;;;;;;5023753;28;87803;-42
2022/01/21 11:08:07;;;;;;;;;;;2.10;78.10;;;;;;5024191;28;89724;-43
2022/01/21 11:10:33;;;;;;;;;;;2.00;78.10;;;;;;5023761;28;89361;-43
2022/01/21 11:12:59;;;;;;;;;;;2.00;78.10;;;;;;5023945;28;87171;-43
2022/01/21 11:15:25;;;;;;;;;;;2.10;78.20;;;;;;5023772;28;88877;-43
2022/01/21 11:17:59;;;;;;;;;;;2.00;78.30;;;;;;5023723;28;89644;-43
2022/01/21 11:20:40;;;;;;;;;;;2.10;78.30;;;;;;5024189;28;87184;-42
2022/01/21 11:23:06;;;;;;;;;;;2.00;78.10;;;;;;5027021;28;88881;-43
2022/01/21 11:25:41;;;;;;;;;;;2.00;78.30;;;;;;5023678;28;87038;-43
2022/01/21 11:28:07;;;;;;;;;;;2.00;78.30;;;;;;5023718;28;88923;-43
2022/01/21 11:30:32;;;;;;;;;;;2.00;78.30;;;;;;5022645;28;90158;-43
2022/01/21 11:32:58;;;;;;;;;;;2.00;78.30;;;;;;5023764;28;87165;-43
2022/01/21 11:35:24;;;;;;;;;;;2.00;78.40;;;;;;5023693;28;89349;-43
2022/01/21 11:37:50;;;;;;;;;;;2.10;78.40;;;;;;5023327;28;89738;-43
2022/01/21 11:40:15;;;;;;;;;;;2.10;78.30;;;;;;5023541;28;87158;-43
2022/01/21 11:42:41;;;;;;;;;;;2.10;78.20;;;;;;5023350;28;88597;-43
2022/01/21 11:45:19;;;;;;;;;;;2.10;78.20;;;;;;5025976;28;89857;-43
2022/01/21 11:48:11;;;;;;;;;;;2.10;78.20;;;;;;5024051;28;89059;-43
2022/01/21 11:50:36;;;;;;;;;;;2.00;78.50;;;;;;5023131;28;88569;-43
2022/01/21 11:53:02;;;;;;;;;;;2.00;78.40;;;;;;5023375;28;87171;-43
2022/01/21 11:55:39;;;;;;;;;;;2.00;78.30;;;;;;5022912;28;88786;-42
2022/01/21 11:58:15;;;;;;;;;;;2.00;78.30;;;;;;5023149;28;88463;-42
2022/01/21 12:00:41;;;;;;;;;;;2.00;78.40;;;;;;5023444;28;87017;-42
2022/01/21 12:03:07;;;;;;;;;;;2.00;78.60;;;;;;5023374;28;88815;-42
2022/01/21 12:05:35;;;;;;;;;;;2.00;78.60;;;;;;5022693;28;89304;-42
2022/01/21 12:08:04;;;;;;;;;;;2.00;78.60;;;;;;5026098;28;87145;-42
2022/01/21 12:10:34;;;;;;;;;;;2.00;78.60;;;;;;5022206;28;89511;-42
2022/01/21 12:13:05;;;;;;;;;;;2.00;78.50;;;;;;5023635;28;86391;-42
2022/01/21 12:18:10;;;;;;;;;;;2.00;78.60;;;;;;5022642;28;87159;-42
2022/01/21 12:20:36;;;;;;;;;;;2.00;78.60;;;;;;5022384;28;88097;-42
2022/01/21 12:23:28;;;;;;;;;;;1.90;78.60;;;;;;5022940;28;90091;-42
2022/01/21 12:26:09;;;;;;;;;;;2.00;78.60;;;;;;5023091;27;89780;-42
2022/01/21 12:28:38;;;;;;;;;;;1.90;78.60;;;;;;5023028;28;87074;-42
2022/01/21 12:31:04;;;;;;;;;;;1.90;78.50;;;;;;5025605;28;88548;-43
2022/01/21 12:36:34;;;;;;;;;;;2.00;78.50;;;;;;5024658;27;87370;-42
2022/01/21 12:41:28;;;;;;;;;;;2.00;78.40;;;;;;5022603;28;87143;-43
2022/01/21 12:43:56;;;;;;;;;;;2.00;78.50;;;;;;5022926;28;88786;-42
2022/01/21 12:46:31;;;;;;;;;;;2.00;78.50;;;;;;5021628;28;90228;-42
2022/01/21 12:48:57;;;;;;;;;;;2.00;78.50;;;;;;5022691;28;87222;-42
2022/01/21 12:56:45;;;;;;;;;;;1.90;78.60;;;;;;5021605;28;87115;-42
2022/01/21 12:59:15;;;;;;;;;;;1.90;78.60;;;;;;5022211;28;89799;-42
2022/01/21 13:01:42;;;;;;;;;;;2.00;78.60;;;;;;5022699;28;87117;-42
2022/01/21 13:04:26;;;;;;;;;;;2.00;78.50;;;;;;5022974;28;88882;-42
2022/01/21 13:07:06;;;;;;;;;;;2.00;78.50;;;;;;5022296;28;87321;-42
2022/01/21 13:09:55;;;;;;;;;;;1.90;78.60;;;;;;5022548;28;87149;-42
2022/01/21 13:12:21;;;;;;;;;;;2.00;78.70;;;;;;5023465;27;88742;-42
2022/01/21 13:14:53;;;;;;;;;;;2.00;78.70;;;;;;5022112;28;89546;-42
2022/01/21 13:17:19;;;;;;;;;;;2.00;78.60;;;;;;5025281;28;87106;-42
2022/01/21 13:19:45;;;;;;;;;;;1.90;78.80;;;;;;5022100;28;90021;-42
2022/01/21 13:22:25;;;;;;;;;;;1.90;78.70;;;;;;5024372;28;87152;-42
2022/01/21 13:25:05;;;;;;;;;;;1.90;78.70;;;;;;5025580;28;89091;-42
2022/01/21 13:27:31;;;;;;;;;;;1.90;78.70;;;;;;5025267;28;89258;-42
2022/01/21 13:30:00;;;;;;;;;;;1.90;79.00;;;;;;5026208;28;86345;-42
2022/01/21 13:32:26;;;;;;;;;;;1.80;79.20;;;;;;5025802;28;88220;-42
2022/01/21 13:34:51;;;;;;;;;;;1.80;79.00;;;;;;5025111;28;89628;-43
2022/01/21 13:37:18;;;;;;;;;;;1.80;79.20;;;;;;5027711;28;88028;-42
2022/01/21 13:39:45;;;;;;;;;;;1.80;79.00;;;;;;5025130;28;89580;-42
2022/01/21 13:42:14;;;;;;;;;;;1.80;79.00;;;;;;5025158;28;87129;-42
2022/01/21 13:44:42;;;;;;;;;;;1.80;79.30;;;;;;5025457;28;89021;-42
2022/01/21 13:47:27;;;;;;;;;;;1.80;79.30;;;;;;5024946;28;89480;-43
2022/01/21 13:49:54;;;;;;;;;;;1.70;79.40;;;;;;5025405;27;87073;-42
2022/01/21 13:52:19;;;;;;;;;;;1.70;79.40;;;;;;5025399;28;87995;-42
2022/01/21 13:54:46;;;;;;;;;;;1.80;79.30;;;;;;5025532;28;88968;-42
2022/01/21 13:57:12;;;;;;;;;;;1.70;79.30;;;;;;5025344;28;87245;-42
2022/01/21 13:59:41;;;;;;;;;;;1.80;79.30;;;;;;5027913;28;88794;-42
2022/01/21 14:02:11;;;;;;;;;;;1.70;79.20;;;;;;5024458;28;88086;-42
2022/01/21 14:04:37;;;;;;;;;;;1.80;79.20;;;;;;5025111;28;88813;-42
2022/01/21 14:07:04;;;;;;;;;;;1.80;79.70;;;;;;5024728;28;88525;-42
2022/01/21 14:09:29;;;;;;;;;;;1.80;79.10;;;;;;5024947;28;87082;-43
2022/01/21 14:11:56;;;;;;;;;;;1.80;79.00;;;;;;5025052;28;88896;-43
2022/01/21 14:14:22;;;;;;;;;;;1.70;79.10;;;;;;5024610;28;89338;-43
2022/01/21 14:16:53;;;;;;;;;;;1.70;79.20;;;;;;5024932;28;87145;-42
2022/01/21 14:19:20;;;;;;;;;;;1.80;79.10;;;;;;5025468;28;88804;-42
2022/01/21 14:21:47;;;;;;;;;;;1.80;79.10;;;;;;5027319;28;89826;-42
2022/01/21 14:24:14;;;;;;;;;;;1.80;79.00;;;;;;5024872;28;88832;-42
2022/01/21 14:26:42;;;;;;;;;;;1.80;79.00;;;;;;5023836;28;88706;-43
2022/01/21 14:29:08;;;;;;;;;;;1.80;79.00;;;;;;5024848;28;87089;-42
2022/01/21 14:31:44;;;;;;;;;;;1.70;78.90;;;;;;5024565;28;87973;-43
2022/01/21 14:34:11;;;;;;;;;;;1.70;78.90;;;;;;5024271;28;89945;-43
2022/01/21 14:36:37;;;;;;;;;;;1.70;78.90;;;;;;5024723;28;87081;-42
2022/01/21 14:39:21;;;;;;;;;;;1.70;79.00;;;;;;5024690;28;89173;-43
2022/01/21 14:41:49;;;;;;;;;;;1.80;78.90;;;;;;5023709;28;89558;-42
2022/01/21 14:44:15;;;;;;;;;;;1.80;78.80;;;;;;5027829;28;86476;-42
2022/01/21 14:46:41;;;;;;;;;;;1.70;78.80;;;;;;5024113;28;89450;-42
2022/01/21 14:49:07;;;;;;;;;;;1.70;78.80;;;;;;5024539;28;87257;-42
2022/01/21 14:54:37;;;;;;;;;;;1.70;78.90;;;;;;5013016;28;87476;-42
2022/01/21 14:57:05;;;;;;;;;;;1.70;79.00;;;;;;5024453;28;87127;-42
2022/01/21 14:59:30;;;;;;;;;;;1.70;78.90;;;;;;5024548;28;87435;-42
2022/01/21 15:02:05;;;;;;;;;;;1.70;78.90;;;;;;5023776;28;89391;-42
2022/01/21 15:04:35;;;;;;;;;;;1.70;78.90;;;;;;5024368;28;87149;-42
2022/01/21 15:07:05;;;;;;;;;;;1.70;78.90;;;;;;5026906;28;88809;-42
2022/01/21 15:09:31;;;;;;;;;;;1.70;79.00;;;;;;5024658;28;86448;-43
2022/01/21 15:14:51;;;;;;;;;;;1.70;79.00;;;;;;5003316;28;87437;-42
2022/01/21 15:17:17;;;;;;;;;;;1.70;79.10;;;;;;5023553;28;87982;-42
2022/01/21 15:19:43;;;;;;;;;;;1.70;78.90;;;;;;5023937;28;89807;-42
2022/01/21 15:22:11;;;;;;;;;;;1.70;78.90;;;;;;5023261;28;89437;-42
2022/01/21 15:24:38;;;;;;;;;;;1.70;78.90;;;;;;5023777;28;87032;-42
2022/01/21 15:27:03;;;;;;;;;;;1.60;78.90;;;;;;5023863;28;88629;-42
2022/01/21 15:29:29;;;;;;;;;;;1.60;78.90;;;;;;5026437;28;88716;-42
2022/01/21 15:31:55;;;;;;;;;;;1.60;79.00;;;;;;5023786;28;88101;-42
2022/01/21 15:34:20;;;;;;;;;;;1.60;79.00;;;;;;5023820;28;88044;-42
2022/01/21 15:36:46;;;;;;;;;;;1.60;79.10;;;;;;5023400;28;87105;-42